RORT(METAR)
05/30 16:00
RORT 300700Z 20012KT 9999 FEW010 SCTXXX 31/28 Q1010 RMK A2984=
戻る
トップページへ戻る
IMOC Co,.Ltd.